Time;durP1;ratioP1;P1;durP2;ratioP2;P2;SDS_P1;SDS_P2;PMS_P1;PMS_P2;Temp;Humidity;BMP_temperature;BMP_pressure;BME280_temperature;BME280_humidity;BME280_pressure;Samples;Min_cycle;Max_cycle;Signal;HPM_P1;HPM_P2
2021/06/11 00:01:31;;;;;;;4.40;3.60;;;21.70;99.80;;;;;;4126517;28;20037;-84
2021/06/11 00:03:32;;;;;;;4.90;3.33;;;21.70;99.60;;;;;;4126578;28;20038;-84
2021/06/11 00:05:32;;;;;;;4.35;3.33;;;21.70;99.80;;;;;;4140314;28;20030;-84
2021/06/11 00:07:36;;;;;;;5.50;3.90;;;21.80;99.90;;;;;;4127289;28;20339;-85
2021/06/11 00:09:36;;;;;;;4.00;3.40;;;21.80;99.90;;;;;;4138147;28;20666;-84
2021/06/11 00:11:37;;;;;;;6.28;4.15;;;21.80;99.90;;;;;;4126798;28;20046;-84
2021/06/11 00:13:37;;;;;;;3.60;3.00;;;21.80;99.90;;;;;;4143574;28;20034;-85
2021/06/11 00:15:38;;;;;;;4.57;3.55;;;21.80;99.90;;;;;;4126656;28;20121;-85
2021/06/11 00:17:39;;;;;;;6.72;3.45;;;21.80;99.90;;;;;;4143991;28;20034;-85
2021/06/11 00:19:40;;;;;;;4.30;3.67;;;21.80;99.90;;;;;;4127451;28;20307;-85
2021/06/11 00:21:40;;;;;;;4.75;3.75;;;21.80;99.90;;;;;;4126818;28;20026;-85
2021/06/11 00:23:41;;;;;;;4.97;3.65;;;21.70;99.90;;;;;;4142865;28;20109;-85
2021/06/11 00:25:41;;;;;;;3.60;2.95;;;21.70;99.90;;;;;;4127445;28;20034;-85
2021/06/11 00:27:42;;;;;;;5.45;3.17;;;21.80;99.90;;;;;;4126219;28;20046;-85
2021/06/11 00:29:43;;;;;;;3.85;3.30;;;21.80;99.90;;;;;;4126464;28;20550;-85
2021/06/11 00:31:43;;;;;;;3.13;2.78;;;21.80;99.90;;;;;;4141888;28;20034;-85
2021/06/11 00:33:44;;;;;;;3.08;2.75;;;21.90;99.90;;;;;;4126607;28;20116;-85
2021/06/11 00:35:44;;;;;;;4.00;3.00;;;21.90;99.90;;;;;;4142893;28;20030;-85
2021/06/11 00:37:45;;;;;;;4.03;2.90;;;21.90;99.90;;;;;;4126432;28;20058;-85
2021/06/11 00:39:46;;;;;;;4.45;2.83;;;21.90;99.90;;;;;;4126225;28;20065;-85
2021/06/11 00:41:46;;;;;;;3.90;3.28;;;22.00;99.90;;;;;;4143179;28;20025;-85
2021/06/11 00:43:47;;;;;;;4.57;3.53;;;21.90;99.90;;;;;;4141691;28;20112;-85
2021/06/11 00:45:47;;;;;;;4.20;2.92;;;22.00;99.90;;;;;;4124789;28;20031;-85
2021/06/11 00:47:48;;;;;;;5.47;3.90;;;22.00;99.90;;;;;;4142050;28;20030;-85
2021/06/11 00:49:49;;;;;;;5.88;3.22;;;22.00;99.90;;;;;;4139434;28;20383;-85
2021/06/11 00:51:50;;;;;;;4.75;3.33;;;21.90;99.90;;;;;;4126864;28;20031;-85
2021/06/11 00:53:51;;;;;;;4.30;3.25;;;22.00;99.90;;;;;;4142560;28;20585;-85
2021/06/11 00:55:52;;;;;;;4.18;3.00;;;22.00;99.90;;;;;;4124902;28;20035;-85
2021/06/11 00:57:54;;;;;;;3.35;2.67;;;22.00;99.90;;;;;;4142765;28;20149;-84
2021/06/11 00:59:55;;;;;;;2.97;2.67;;;21.90;99.90;;;;;;4136261;28;20581;-84
2021/06/11 01:01:56;;;;;;;4.78;2.88;;;21.90;99.90;;;;;;4141994;28;20046;-84
2021/06/11 01:03:56;;;;;;;3.67;2.92;;;21.90;99.90;;;;;;4139218;28;20046;-84
2021/06/11 01:05:57;;;;;;;3.63;2.90;;;22.00;99.90;;;;;;4142814;28;20034;-84
2021/06/11 01:07:58;;;;;;;4.97;3.30;;;21.90;99.90;;;;;;4142654;28;20069;-84
2021/06/11 01:10:01;;;;;;;3.90;2.90;;;21.90;99.90;;;;;;4124668;28;20503;-84
2021/06/11 01:12:02;;;;;;;3.05;2.75;;;21.90;99.90;;;;;;4125813;28;20116;-84
2021/06/11 01:14:04;;;;;;;3.85;3.05;;;21.90;99.90;;;;;;4125913;28;20057;-85
2021/06/11 01:16:05;;;;;;;5.38;3.20;;;21.90;99.90;;;;;;4125800;28;20027;-85
2021/06/11 01:18:06;;;;;;;4.15;3.35;;;21.80;99.90;;;;;;4140475;28;20482;-85
2021/06/11 01:20:10;;;;;;;3.63;2.80;;;21.80;99.90;;;;;;4125325;28;20093;-85
2021/06/11 01:22:51;;;;;;;3.38;2.97;;;21.80;99.90;;;;;;4141861;28;20469;-85
2021/06/11 01:25:04;;;;;;;4.30;2.88;;;21.80;99.90;;;;;;4142642;28;20037;-85
2021/06/11 01:27:05;;;;;;;4.20;2.92;;;21.70;99.90;;;;;;4125607;28;20035;-85
2021/06/11 01:29:13;;;;;;;5.32;3.03;;;21.70;99.90;;;;;;4126002;28;20053;-85
2021/06/11 01:31:16;;;;;;;5.43;3.72;;;21.70;99.90;;;;;;4125966;28;20041;-84
2021/06/11 01:33:19;;;;;;;3.50;3.10;;;21.70;99.90;;;;;;4141683;28;20061;-84
2021/06/11 01:35:41;;;;;;;4.45;3.30;;;21.70;99.90;;;;;;4141424;28;20077;-84
2021/06/11 01:37:43;;;;;;;3.88;3.17;;;21.70;99.90;;;;;;4140667;28;20049;-84
2021/06/11 01:39:48;;;;;;;4.73;3.27;;;21.70;99.90;;;;;;4125081;28;20030;-84
2021/06/11 01:41:51;;;;;;;4.70;3.35;;;21.60;99.90;;;;;;4125846;28;20054;-84
2021/06/11 01:43:54;;;;;;;4.78;3.60;;;21.60;99.90;;;;;;4125246;28;20042;-84
2021/06/11 01:45:54;;;;;;;5.50;3.47;;;21.60;99.90;;;;;;4125878;28;20408;-84
2021/06/11 01:47:58;;;;;;;4.85;3.92;;;21.60;99.90;;;;;;4141544;28;20037;-84
2021/06/11 01:49:59;;;;;;;4.90;3.42;;;21.50;99.90;;;;;;4142297;28;20041;-84
2021/06/11 01:52:01;;;;;;;5.60;4.05;;;21.50;99.90;;;;;;4140462;28;20112;-84
2021/06/11 01:54:04;;;;;;;4.68;3.08;;;21.50;99.90;;;;;;4139193;28;20168;-84
2021/06/11 01:56:06;;;;;;;3.97;3.22;;;21.50;99.90;;;;;;4141609;28;20022;-84
2021/06/11 01:58:07;;;;;;;5.60;3.80;;;21.50;99.90;;;;;;4124767;28;20088;-84
2021/06/11 02:00:09;;;;;;;3.88;3.35;;;21.40;99.90;;;;;;4137365;28;20108;-84
2021/06/11 02:02:11;;;;;;;4.78;3.42;;;21.40;99.90;;;;;;4123549;28;20046;-84
2021/06/11 02:04:13;;;;;;;4.20;3.22;;;21.40;99.90;;;;;;4139744;28;20057;-84
2021/06/11 02:06:16;;;;;;;5.27;3.37;;;21.40;99.90;;;;;;4142738;28;20121;-84
2021/06/11 02:08:17;;;;;;;4.68;3.38;;;21.40;99.90;;;;;;4125497;28;20030;-85
2021/06/11 02:10:21;;;;;;;5.60;3.75;;;21.40;99.90;;;;;;4141423;28;20117;-85
2021/06/11 02:12:22;;;;;;;4.82;3.72;;;21.30;99.90;;;;;;4141923;28;20514;-85
2021/06/11 02:14:23;;;;;;;5.10;3.78;;;21.30;99.90;;;;;;4141709;28;20063;-84
2021/06/11 02:16:25;;;;;;;3.80;3.40;;;21.20;99.90;;;;;;4124158;28;20125;-84
2021/06/11 02:18:26;;;;;;;7.65;4.05;;;21.20;99.90;;;;;;4142024;28;20089;-84
2021/06/11 02:20:27;;;;;;;6.22;3.70;;;21.20;99.90;;;;;;4141078;28;20259;-84
2021/06/11 02:22:28;;;;;;;4.13;3.45;;;21.10;99.90;;;;;;4141213;28;20061;-84
2021/06/11 02:24:31;;;;;;;4.95;3.53;;;21.10;99.90;;;;;;4125348;28;20038;-84
2021/06/11 02:26:32;;;;;;;4.90;3.60;;;21.00;99.90;;;;;;4125208;28;20133;-85
2021/06/11 02:28:33;;;;;;;5.25;3.78;;;21.00;99.90;;;;;;4125248;28;20037;-84
2021/06/11 02:30:34;;;;;;;4.90;4.13;;;20.90;99.90;;;;;;4125022;28;20058;-84
2021/06/11 02:32:36;;;;;;;5.40;4.13;;;20.90;99.90;;;;;;4139866;28;20550;-84
2021/06/11 02:34:36;;;;;;;7.85;4.00;;;20.90;99.90;;;;;;4124535;28;20038;-84
2021/06/11 02:36:37;;;;;;;5.38;4.15;;;20.80;99.90;;;;;;4125326;28;20026;-84
2021/06/11 02:38:39;;;;;;;4.68;3.70;;;20.80;99.90;;;;;;4142848;28;20049;-85
2021/06/11 02:40:39;;;;;;;4.70;3.53;;;20.80;99.90;;;;;;4141744;28;20030;-85
2021/06/11 02:42:43;;;;;;;5.30;3.97;;;20.70;99.90;;;;;;4124699;28;20116;-85
2021/06/11 02:44:50;;;;;;;5.85;4.18;;;20.70;99.90;;;;;;4125062;28;20085;-85
2021/06/11 02:46:56;;;;;;;6.13;4.13;;;20.70;99.90;;;;;;4141696;28;20041;-84
2021/06/11 02:49:04;;;;;;;5.30;3.90;;;20.70;99.90;;;;;;4141745;28;20030;-84
2021/06/11 02:51:07;;;;;;;5.40;4.15;;;20.70;99.90;;;;;;4124966;28;20035;-84
2021/06/11 02:53:09;;;;;;;;;;;20.70;99.90;;;;;;4124403;28;20520;-84
2021/06/11 02:55:11;;;;;;;5.82;4.53;;;20.70;99.90;;;;;;4140812;28;19909;-84
2021/06/11 02:57:34;;;;;;;4.95;3.83;;;20.70;99.90;;;;;;4141852;28;20730;-84
2021/06/11 02:59:45;;;;;;;5.95;4.28;;;20.70;99.90;;;;;;4125664;28;20042;-84
2021/06/11 03:01:51;;;;;;;5.35;4.47;;;20.70;99.90;;;;;;4139753;28;20034;-85
2021/06/11 03:03:52;;;;;;;6.30;4.85;;;20.70;99.90;;;;;;4141626;28;20398;-84
2021/06/11 03:05:59;;;;;;;4.88;4.20;;;20.70;99.90;;;;;;4141762;28;20085;-84
2021/06/11 03:08:03;;;;;;;6.50;4.45;;;20.70;99.90;;;;;;4141563;28;20340;-84
2021/06/11 03:10:07;;;;;;;5.38;4.50;;;20.60;99.90;;;;;;4125925;28;20451;-84
2021/06/11 03:12:09;;;;;;;6.72;4.70;;;20.60;99.90;;;;;;4125169;28;20030;-84
2021/06/11 03:14:11;;;;;;;5.95;4.50;;;20.60;99.90;;;;;;4141265;28;20029;-84
2021/06/11 03:16:11;;;;;;;5.95;4.50;;;20.60;99.90;;;;;;4124696;28;20041;-84
2021/06/11 03:18:39;;;;;;;6.78;5.20;;;20.50;99.90;;;;;;4138822;28;20692;-84
2021/06/11 03:20:43;;;;;;;7.47;5.10;;;20.60;99.90;;;;;;4123632;28;20621;-84
2021/06/11 03:23:16;;;;;;;6.32;4.70;;;20.50;99.90;;;;;;4140931;28;20061;-85
2021/06/11 03:25:24;;;;;;;7.18;4.95;;;20.50;99.90;;;;;;4139159;28;20041;-84
2021/06/11 03:27:31;;;;;;;6.38;4.93;;;20.50;99.90;;;;;;4138480;28;20494;-84
2021/06/11 03:29:54;;;;;;;7.32;4.82;;;20.50;99.90;;;;;;4137896;28;20498;-84
2021/06/11 03:31:58;;;;;;;7.50;5.50;;;20.50;99.90;;;;;;4116989;28;20782;-84
2021/06/11 03:34:04;;;;;;;8.13;5.10;;;20.50;99.90;;;;;;4122947;28;20391;-84
2021/06/11 03:36:14;;;;;;;6.50;5.03;;;20.50;99.90;;;;;;4141277;28;20038;-84
2021/06/11 03:38:21;;;;;;;8.75;6.65;;;20.50;99.90;;;;;;4141241;28;20029;-84
2021/06/11 03:40:27;;;;;;;8.77;4.82;;;20.40;99.90;;;;;;4123035;28;20046;-84
2021/06/11 03:42:30;;;;;;;8.75;5.47;;;20.40;99.90;;;;;;4121213;28;20066;-84
2021/06/11 03:44:33;;;;;;;6.80;5.03;;;20.40;99.90;;;;;;4144831;28;20042;-85
2021/06/11 03:46:38;;;;;;;7.00;5.50;;;20.40;99.90;;;;;;4127094;28;20058;-84
2021/06/11 03:48:44;;;;;;;10.75;5.50;;;20.40;99.90;;;;;;4145589;28;20117;-84
2021/06/11 03:50:48;;;;;;;6.28;5.43;;;20.40;99.90;;;;;;4121858;28;20072;-84
2021/06/11 03:52:50;;;;;;;6.22;5.47;;;20.40;99.90;;;;;;4127848;28;20027;-84
2021/06/11 03:54:53;;;;;;;7.47;5.33;;;20.40;99.90;;;;;;4143862;28;20030;-84
2021/06/11 03:56:55;;;;;;;7.85;5.07;;;20.40;99.90;;;;;;4141855;28;20062;-84
2021/06/11 03:58:57;;;;;;;9.10;5.67;;;20.40;99.90;;;;;;4125440;28;20048;-84
2021/06/11 04:01:01;;;;;;;6.32;5.13;;;20.40;99.90;;;;;;4124295;28;20300;-84
2021/06/11 04:03:02;;;;;;;8.02;5.13;;;20.50;99.90;;;;;;4128235;28;20038;-84
2021/06/11 04:05:03;;;;;;;7.38;5.40;;;20.40;99.90;;;;;;4129058;28;20394;-84
2021/06/11 04:07:10;;;;;;;7.65;5.43;;;20.40;99.90;;;;;;4128024;28;20061;-84
2021/06/11 04:09:18;;;;;;;7.32;5.60;;;20.40;99.90;;;;;;4138756;28;20038;-84
2021/06/11 04:11:26;;;;;;;6.65;5.43;;;20.50;99.90;;;;;;4128386;28;20169;-84
2021/06/11 04:13:42;;;;;;;8.45;5.70;;;20.40;99.90;;;;;;4143552;28;20037;-84
2021/06/11 04:15:44;;;;;;;7.85;5.80;;;20.50;99.90;;;;;;4124780;28;20038;-84
2021/06/11 04:17:52;;;;;;;7.18;5.60;;;20.50;99.90;;;;;;4154490;28;20129;-84
2021/06/11 04:19:56;;;;;;;10.77;5.60;;;20.50;99.90;;;;;;4140236;28;21267;-84
2021/06/11 04:21:58;;;;;;;7.50;5.63;;;20.50;99.90;;;;;;4142462;28;20034;-84
2021/06/11 04:24:04;;;;;;;8.90;6.43;;;20.50;99.90;;;;;;4136801;28;20042;-84
2021/06/11 04:26:06;;;;;;;7.85;5.95;;;20.50;99.90;;;;;;4121401;28;20062;-84
2021/06/11 04:28:11;;;;;;;8.10;5.68;;;20.60;99.90;;;;;;4141317;28;20049;-84
2021/06/11 04:30:14;;;;;;;8.60;6.32;;;20.50;99.90;;;;;;4124043;28;20042;-84
2021/06/11 04:32:15;;;;;;;6.75;5.30;;;20.50;99.90;;;;;;4141177;28;20576;-84
2021/06/11 04:34:17;;;;;;;8.30;5.78;;;20.50;99.90;;;;;;4126432;28;20038;-84
2021/06/11 04:36:17;;;;;;;7.50;5.93;;;20.60;99.90;;;;;;4125016;28;20077;-84
2021/06/11 04:38:18;;;;;;;8.30;6.00;;;20.60;99.90;;;;;;4126516;28;20458;-85
2021/06/11 04:40:19;;;;;;;7.30;5.97;;;20.60;99.90;;;;;;4142304;28;20037;-84
2021/06/11 04:42:21;;;;;;;7.82;6.00;;;20.60;99.90;;;;;;4141155;28;20121;-84
2021/06/11 04:44:23;;;;;;;8.00;6.00;;;20.60;99.90;;;;;;4124627;28;20050;-84
2021/06/11 04:46:23;;;;;;;7.70;6.03;;;20.60;99.90;;;;;;4127761;28;20045;-84
2021/06/11 04:48:24;;;;;;;8.35;5.93;;;20.60;99.90;;;;;;4126707;28;20474;-80
2021/06/11 04:50:25;;;;;;;9.68;6.13;;;20.60;99.90;;;;;;4139738;28;20034;-80
2021/06/11 04:52:26;;;;;;;7.07;5.70;;;20.60;99.90;;;;;;4143113;28;20052;-80
2021/06/11 04:54:26;;;;;;;8.23;6.57;;;20.60;99.90;;;;;;4143725;28;20038;-81
2021/06/11 04:56:27;;;;;;;6.90;5.70;;;20.60;99.90;;;;;;4146445;28;20183;-81
2021/06/11 04:58:28;;;;;;;7.53;5.93;;;20.60;99.90;;;;;;4129490;28;20176;-81
2021/06/11 05:00:29;;;;;;;7.25;5.80;;;20.70;99.90;;;;;;4127402;28;20061;-81
2021/06/11 05:02:30;;;;;;;7.32;6.18;;;20.70;99.90;;;;;;4147941;28;20044;-80
2021/06/11 05:04:31;;;;;;;8.13;6.35;;;20.70;99.90;;;;;;4146682;28;20085;-80
2021/06/11 05:06:31;;;;;;;8.95;7.05;;;20.80;99.90;;;;;;4130046;28;20129;-80
2021/06/11 05:08:38;;;;;;;8.30;6.63;;;20.80;99.90;;;;;;4128777;28;20031;-81
2021/06/11 05:10:40;;;;;;;8.82;7.03;;;20.70;99.90;;;;;;4147673;28;20038;-80
2021/06/11 05:12:40;;;;;;;10.82;7.80;;;20.70;99.90;;;;;;4144862;28;20033;-80
2021/06/11 05:14:41;;;;;;;10.02;7.43;;;20.70;99.90;;;;;;4140357;28;20559;-80
2021/06/11 05:16:42;;;;;;;10.98;7.45;;;20.70;99.90;;;;;;4133130;28;20121;-80
2021/06/11 05:18:42;;;;;;;9.63;7.05;;;20.70;99.90;;;;;;4151184;28;20041;-80
2021/06/11 05:20:43;;;;;;;9.55;7.25;;;20.70;99.90;;;;;;4131552;28;20049;-81
2021/06/11 05:22:50;;;;;;;10.02;7.40;;;20.70;99.90;;;;;;4139852;28;20038;-81
2021/06/11 05:24:51;;;;;;;10.90;7.47;;;20.70;99.90;;;;;;4147808;28;20200;-80
2021/06/11 05:27:04;;;;;;;12.10;7.85;;;20.80;99.90;;;;;;4145946;28;20046;-80
2021/06/11 05:29:11;;;;;;;14.38;9.45;;;20.70;99.90;;;;;;4147361;28;20034;-80
2021/06/11 05:31:13;;;;;;;11.25;8.02;;;20.80;99.90;;;;;;4145352;28;20049;-80
2021/06/11 05:33:15;;;;;;;10.02;8.30;;;20.80;99.90;;;;;;4150993;28;20034;-81
2021/06/11 05:35:16;;;;;;;12.43;8.85;;;20.80;99.90;;;;;;4151856;28;20046;-81
2021/06/11 05:37:17;;;;;;;14.63;9.07;;;20.80;99.90;;;;;;4125865;28;20109;-81
2021/06/11 05:39:17;;;;;;;14.70;10.23;;;20.80;99.90;;;;;;4143879;28;20092;-82
2021/06/11 05:41:18;;;;;;;11.85;7.97;;;20.80;99.90;;;;;;4140082;28;20034;-82
2021/06/11 05:43:18;;;;;;;12.52;8.75;;;20.80;99.90;;;;;;4131386;28;20573;-82
2021/06/11 05:45:30;;;;;;;12.45;8.80;;;20.90;99.90;;;;;;4129397;28;20053;-82
2021/06/11 05:47:31;;;;;;;11.07;8.45;;;21.00;99.90;;;;;;4146658;28;20100;-81
2021/06/11 05:49:32;;;;;;;13.95;10.27;;;21.20;99.90;;;;;;4132991;28;20874;-82
2021/06/11 05:51:45;;;;;;;12.55;9.68;;;21.50;99.90;;;;;;4134427;28;20136;-82
2021/06/11 05:53:47;;;;;;;16.45;10.52;;;21.80;99.90;;;;;;4129785;28;20168;-82
2021/06/11 05:55:51;;;;;;;12.87;9.47;;;22.10;99.90;;;;;;4132107;28;20038;-82
2021/06/11 05:57:52;;;;;;;12.18;8.90;;;22.40;99.90;;;;;;4148429;28;20037;-82
2021/06/11 05:59:55;;;;;;;15.20;9.82;;;22.80;99.90;;;;;;4145951;28;20117;-81
2021/06/11 06:01:55;;;;;;;12.75;10.60;;;23.00;99.90;;;;;;4147884;28;20064;-81
2021/06/11 06:04:08;;;;;;;14.93;10.93;;;22.90;99.90;;;;;;4146641;28;20034;-82
2021/06/11 06:06:09;;;;;;;12.30;9.32;;;23.00;99.90;;;;;;4145808;28;20117;-81
2021/06/11 06:08:11;;;;;;;12.50;9.57;;;23.20;99.90;;;;;;4149622;28;20034;-81
2021/06/11 06:10:14;;;;;;;;;;;23.50;99.90;;;;;;4143394;28;20866;-81
2021/06/11 06:12:15;;;;;;;12.30;8.32;;;23.80;99.90;;;;;;4146815;28;19932;-81
2021/06/11 06:14:18;;;;;;;10.43;7.10;;;24.00;99.90;;;;;;4145778;28;20029;-81
2021/06/11 06:16:21;;;;;;;11.52;8.57;;;24.30;99.90;;;;;;4145349;28;20165;-81
2021/06/11 06:18:23;;;;;;;11.85;8.85;;;24.50;99.90;;;;;;4131940;28;20240;-81
2021/06/11 06:20:24;;;;;;;10.20;7.85;;;24.70;99.90;;;;;;4126551;28;20133;-80
2021/06/11 06:22:25;;;;;;;15.45;7.75;;;24.80;99.90;;;;;;4145553;28;20034;-80
2021/06/11 06:24:25;;;;;;;13.35;8.93;;;24.80;99.90;;;;;;4144612;28;20030;-81
2021/06/11 06:26:32;;;;;;;11.57;8.60;;;24.90;99.90;;;;;;4130558;28;20030;-81
2021/06/11 06:28:32;;;;;;;12.90;10.10;;;24.90;99.90;;;;;;4148569;28;20125;-81
2021/06/11 06:30:39;;;;;;;15.93;9.55;;;24.70;99.90;;;;;;4145516;28;20781;-81
2021/06/11 06:32:47;;;;;;;11.65;9.13;;;24.40;99.90;;;;;;4145149;28;20045;-81
2021/06/11 06:34:48;;;;;;;12.10;9.80;;;24.20;99.90;;;;;;4143729;28;20050;-81
2021/06/11 06:36:49;;;;;;;11.50;9.30;;;24.00;99.90;;;;;;4145131;28;20096;-81
2021/06/11 06:39:01;;;;;;;11.52;9.20;;;23.90;99.90;;;;;;4145929;28;20180;-81
2021/06/11 06:41:08;;;;;;;14.75;10.00;;;23.90;99.90;;;;;;4144129;28;20625;-81
2021/06/11 06:43:12;;;;;;;17.95;8.95;;;23.70;99.90;;;;;;4148064;28;20049;-81
2021/06/11 06:45:15;;;;;;;10.73;8.65;;;23.80;99.90;;;;;;4145215;28;20038;-79
2021/06/11 06:47:15;;;;;;;11.25;9.45;;;23.80;99.90;;;;;;4129828;28;20054;-81
2021/06/11 06:49:17;;;;;;;9.57;7.38;;;23.80;99.90;;;;;;4132741;28;20080;-80
2021/06/11 06:51:20;;;;;;;11.07;7.70;;;23.90;99.90;;;;;;4134187;28;20049;-81
2021/06/11 06:53:23;;;;;;;10.23;7.95;;;24.00;99.90;;;;;;4146030;28;20038;-80
2021/06/11 06:55:23;;;;;;;11.27;8.32;;;24.10;99.90;;;;;;4144286;28;20050;-81
2021/06/11 06:57:24;;;;;;;12.90;8.80;;;24.10;99.90;;;;;;4131711;28;20157;-80
2021/06/11 06:59:24;;;;;;;11.98;8.10;;;24.10;99.90;;;;;;4127286;28;20517;-80
2021/06/11 07:01:26;;;;;;;12.15;8.55;;;24.10;99.90;;;;;;4130000;28;20390;-80
2021/06/11 07:03:26;;;;;;;15.70;9.43;;;24.10;99.90;;;;;;4142794;28;20065;-82
2021/06/11 07:05:29;;;;;;;11.82;8.25;;;23.90;99.90;;;;;;4144163;28;20045;-81
2021/06/11 07:07:30;;;;;;;11.00;7.65;;;23.80;99.90;;;;;;4135915;28;20169;-80
2021/06/11 07:09:31;;;;;;;9.30;8.07;;;23.80;99.90;;;;;;4146476;28;20042;-80
2021/06/11 07:11:32;;;;;;;11.07;8.32;;;23.80;99.90;;;;;;4129147;28;20185;-80
2021/06/11 07:13:33;;;;;;;11.38;8.77;;;23.80;99.90;;;;;;4149495;28;20046;-81
2021/06/11 07:15:33;;;;;;;9.10;7.60;;;23.80;99.90;;;;;;4147285;28;20052;-81
2021/06/11 07:17:34;;;;;;;12.02;8.50;;;23.80;99.90;;;;;;4142995;28;20076;-81
2021/06/11 07:19:35;;;;;;;14.18;9.75;;;23.70;99.90;;;;;;4147210;28;20533;-81
2021/06/11 07:21:36;;;;;;;13.70;10.35;;;23.70;99.90;;;;;;4144146;28;20044;-81
2021/06/11 07:23:36;;;;;;;15.35;10.63;;;23.60;99.90;;;;;;4145741;28;20071;-81
2021/06/11 07:25:37;;;;;;;14.25;10.52;;;23.50;99.90;;;;;;4147179;28;20046;-81
2021/06/11 07:27:37;;;;;;;15.00;11.00;;;23.50;99.90;;;;;;4149554;28;20049;-82
2021/06/11 07:29:44;;;;;;;13.15;9.98;;;23.40;99.90;;;;;;4147062;28;20072;-80
2021/06/11 07:31:45;;;;;;;12.93;9.82;;;23.20;99.90;;;;;;4144294;28;20053;-81
2021/06/11 07:33:45;;;;;;;12.05;8.90;;;23.10;99.90;;;;;;4140361;28;20030;-81
2021/06/11 07:35:46;;;;;;;15.18;10.55;;;23.10;99.90;;;;;;4144013;28;20866;-80
2021/06/11 07:37:47;;;;;;;13.55;9.02;;;23.10;99.90;;;;;;4142445;28;20081;-81
2021/06/11 07:39:47;;;;;;;15.68;9.82;;;23.00;99.90;;;;;;4147804;28;20057;-80
2021/06/11 07:41:49;;;;;;;13.27;9.05;;;23.00;99.90;;;;;;4143226;28;20042;-80
2021/06/11 07:43:51;;;;;;;11.60;8.52;;;23.00;99.90;;;;;;4145185;28;20466;-81
2021/06/11 07:45:52;;;;;;;16.65;12.70;;;23.00;99.90;;;;;;4127388;28;20038;-81
2021/06/11 07:47:58;;;;;;;15.52;10.23;;;23.00;99.90;;;;;;4131000;28;20372;-81
2021/06/11 07:50:01;;;;;;;13.93;10.00;;;23.00;99.90;;;;;;4142408;28;20044;-81
2021/06/11 07:52:03;;;;;;;14.07;9.63;;;23.00;99.90;;;;;;4143849;28;20044;-80
2021/06/11 07:54:04;;;;;;;16.80;11.82;;;23.00;99.90;;;;;;4132249;28;20090;-81
2021/06/11 07:56:08;;;;;;;16.65;10.68;;;23.00;99.90;;;;;;4147398;28;20025;-81
2021/06/11 07:58:08;;;;;;;13.30;8.82;;;22.80;99.90;;;;;;4153712;28;20053;-81
2021/06/11 08:00:09;;;;;;;14.23;9.52;;;22.90;99.90;;;;;;4140969;28;20045;-81
2021/06/11 08:02:12;;;;;;;12.25;9.30;;;22.80;99.90;;;;;;4128205;28;20090;-81
2021/06/11 08:04:13;;;;;;;14.10;9.18;;;22.80;99.90;;;;;;4127554;28;20597;-81
2021/06/11 08:06:13;;;;;;;12.68;9.00;;;22.80;99.90;;;;;;4144159;28;20045;-81
2021/06/11 08:08:14;;;;;;;11.55;8.77;;;22.80;99.90;;;;;;4127576;28;20225;-81
2021/06/11 08:10:15;;;;;;;19.67;7.38;;;22.70;99.90;;;;;;4143326;28;20037;-81
2021/06/11 08:12:17;;;;;;;10.23;6.75;;;22.80;99.90;;;;;;4144189;28;20038;-81
2021/06/11 08:14:18;;;;;;;9.02;7.03;;;22.90;99.90;;;;;;4145817;28;20037;-80
2021/06/11 08:16:18;;;;;;;9.02;6.57;;;23.00;99.90;;;;;;4128019;28;20045;-81
2021/06/11 08:18:19;;;;;;;10.35;6.35;;;23.00;99.90;;;;;;4128264;28;20056;-81
2021/06/11 08:20:20;;;;;;;8.10;5.72;;;23.10;99.90;;;;;;4145705;28;20117;-81
2021/06/11 08:22:21;;;;;;;11.05;7.28;;;23.20;99.90;;;;;;4144811;28;20514;-81
2021/06/11 08:24:21;;;;;;;9.98;6.72;;;23.10;99.90;;;;;;4128307;28;20031;-81
2021/06/11 08:26:22;;;;;;;9.80;5.38;;;23.10;99.90;;;;;;4138713;28;20042;-80
2021/06/11 08:28:23;;;;;;;10.25;6.20;;;23.10;99.90;;;;;;4126487;28;20413;-81
2021/06/11 08:30:24;;;;;;;7.60;5.40;;;23.20;99.90;;;;;;4139311;28;20030;-80
2021/06/11 08:32:25;;;;;;;9.50;6.90;;;23.30;99.90;;;;;;4143703;28;20034;-82
2021/06/11 08:34:27;;;;;;;6.97;5.05;;;23.30;99.90;;;;;;4137180;28;20057;-81
2021/06/11 08:36:27;;;;;;;7.70;5.65;;;23.30;99.90;;;;;;4138010;28;20726;-80
2021/06/11 08:38:28;;;;;;;8.95;5.55;;;23.40;99.90;;;;;;4140736;28;21715;-81
2021/06/11 08:40:29;;;;;;;8.70;4.72;;;23.40;99.90;;;;;;4125673;28;20145;-81
2021/06/11 08:42:31;;;;;;;8.82;6.13;;;23.40;99.90;;;;;;4127146;28;20062;-81
2021/06/11 08:44:31;;;;;;;13.63;6.43;;;23.50;99.90;;;;;;4143038;28;20128;-81
2021/06/11 08:46:33;;;;;;;9.20;6.60;;;23.50;99.90;;;;;;4126502;28;20532;-81
2021/06/11 08:48:34;;;;;;;7.88;5.53;;;23.40;99.90;;;;;;4143098;28;20060;-81
2021/06/11 08:50:35;;;;;;;7.15;5.88;;;23.40;99.90;;;;;;4145339;28;20038;-80
2021/06/11 08:52:36;;;;;;;7.38;5.30;;;23.30;99.90;;;;;;4148786;28;20101;-80
2021/06/11 08:54:36;;;;;;;8.52;5.15;;;23.30;99.90;;;;;;4129362;28;20034;-80
2021/06/11 08:56:37;;;;;;;8.75;5.90;;;23.40;99.90;;;;;;4143653;28;20061;-80
2021/06/11 08:58:40;;;;;;;6.22;4.35;;;23.40;99.90;;;;;;4130176;28;20030;-80
2021/06/11 09:00:42;;;;;;;7.07;4.60;;;23.50;99.90;;;;;;4140424;28;20041;-80
2021/06/11 09:03:07;;;;;;;7.55;4.32;;;23.60;99.90;;;;;;4140969;28;20651;-81
2021/06/11 09:05:18;;;;;;;10.00;4.57;;;23.80;99.90;;;;;;4144484;28;20068;-81
2021/06/11 09:07:23;;;;;;;6.50;4.55;;;23.80;99.90;;;;;;4129431;28;20426;-81
2021/06/11 09:09:47;;;;;;;6.47;4.30;;;24.00;99.90;;;;;;4127342;28;20030;-80
2021/06/11 09:11:50;;;;;;;9.35;5.00;;;24.10;99.90;;;;;;4145578;28;20037;-81
2021/06/11 09:14:03;;;;;;;8.00;4.88;;;24.10;99.90;;;;;;4142764;28;20037;-80
2021/06/11 09:16:16;;;;;;;6.80;4.95;;;24.20;99.90;;;;;;4140720;28;20510;-80
2021/06/11 09:18:24;;;;;;;6.90;4.80;;;24.20;99.90;;;;;;4129623;28;20077;-82
2021/06/11 09:20:41;;;;;;;7.43;4.85;;;24.30;99.90;;;;;;4139301;28;20291;-81
2021/06/11 09:22:55;;;;;;;6.22;4.45;;;24.30;99.90;;;;;;4146342;28;20402;-80
2021/06/11 09:24:59;;;;;;;5.18;3.95;;;24.50;99.90;;;;;;4144362;28;20117;-80
2021/06/11 09:27:12;;;;;;;6.65;3.97;;;24.50;99.90;;;;;;4143352;28;20060;-81
2021/06/11 09:29:20;;;;;;;5.03;3.75;;;24.70;99.90;;;;;;4130237;28;20153;-80
2021/06/11 09:31:25;;;;;;;7.22;4.35;;;24.80;99.90;;;;;;4139094;28;20033;-80
2021/06/11 09:33:25;;;;;;;7.70;4.38;;;24.90;99.90;;;;;;4145484;28;20613;-80
2021/06/11 09:35:34;;;;;;;6.68;4.30;;;25.00;99.90;;;;;;4142998;28;20107;-80
2021/06/11 09:37:39;;;;;;;7.13;4.68;;;25.10;99.90;;;;;;4139032;28;20627;-80
2021/06/11 09:39:45;;;;;;;5.95;4.68;;;25.20;99.90;;;;;;4139455;28;20109;-80
2021/06/11 09:42:06;;;;;;;7.78;4.35;;;25.30;99.90;;;;;;4145930;28;20037;-80
2021/06/11 09:44:07;;;;;;;7.72;5.30;;;25.40;99.90;;;;;;4141514;28;20041;-80
2021/06/11 09:46:10;;;;;;;6.10;4.43;;;25.50;99.90;;;;;;4145416;28;20037;-79
2021/06/11 09:48:25;;;;;;;8.02;4.70;;;25.50;99.90;;;;;;4146294;28;21201;-80
2021/06/11 09:50:38;;;;;;;6.63;4.20;;;25.60;99.90;;;;;;4150411;28;20030;-80
2021/06/11 09:53:04;;;;;;;8.63;4.85;;;25.70;99.90;;;;;;4145769;28;20115;-80
2021/06/11 09:55:06;;;;;;;12.07;7.05;;;25.80;99.90;;;;;;4127867;28;20041;-80
2021/06/11 09:57:28;;;;;;;6.78;4.60;;;25.80;99.90;;;;;;4150151;28;20054;-81
2021/06/11 09:59:41;;;;;;;7.03;4.68;;;25.80;99.90;;;;;;4150379;28;20029;-81
2021/06/11 10:02:10;;;;;;;7.97;4.80;;;25.90;99.90;;;;;;4145132;28;20060;-81
2021/06/11 10:04:12;;;;;;;9.43;5.60;;;25.90;99.90;;;;;;4144335;28;20034;-81
2021/06/11 10:06:14;;;;;;;8.17;5.30;;;25.90;99.90;;;;;;4131286;28;20539;-81
2021/06/11 10:08:17;;;;;;;7.18;4.65;;;25.90;99.90;;;;;;4129817;28;20274;-81
2021/06/11 10:10:18;;;;;;;9.20;4.88;;;25.90;99.90;;;;;;4144390;28;20029;-81
2021/06/11 10:12:19;;;;;;;10.80;6.70;;;25.90;99.90;;;;;;4148120;28;20033;-81
2021/06/11 10:14:20;;;;;;;9.55;6.10;;;25.90;99.90;;;;;;4147761;28;20042;-81
2021/06/11 10:16:28;;;;;;;10.70;5.00;;;25.90;99.90;;;;;;4148063;28;20657;-81
2021/06/11 10:18:29;;;;;;;8.07;4.68;;;25.90;99.90;;;;;;4141536;28;20060;-81
2021/06/11 10:20:30;;;;;;;8.50;4.80;;;25.90;99.90;;;;;;4129996;28;20839;-81
2021/06/11 10:22:32;;;;;;;10.52;5.90;;;25.90;99.90;;;;;;4148522;28;20037;-81
2021/06/11 10:24:34;;;;;;;7.47;4.10;;;26.00;99.20;;;;;;4127721;28;20026;-81
2021/06/11 10:26:42;;;;;;;7.05;3.65;;;26.00;98.90;;;;;;4145223;28;20099;-81
2021/06/11 10:28:48;;;;;;;4.88;3.20;;;26.10;99.10;;;;;;4125650;28;20030;-81
2021/06/11 10:30:49;;;;;;;6.47;3.70;;;26.20;99.10;;;;;;4124774;28;20112;-81
2021/06/11 10:32:49;;;;;;;4.93;3.58;;;26.30;99.00;;;;;;4141380;28;20033;-81
2021/06/11 10:34:51;;;;;;;6.05;3.78;;;26.30;99.00;;;;;;4129606;28;20060;-81
2021/06/11 10:36:52;;;;;;;7.15;3.40;;;26.30;98.50;;;;;;4139920;28;20049;-82
2021/06/11 10:38:54;;;;;;;6.85;3.80;;;26.40;98.70;;;;;;4140228;28;20630;-81
2021/06/11 10:40:57;;;;;;;5.07;3.13;;;26.30;98.40;;;;;;4126184;28;20038;-81